Accueil
METAR-TAF:

METAR-TAF

Aéroports :

Michael J. Smith Field

Beaufort, Caroline du Nord, États-Unis

latitude: 34-44-01N, longitude: 076-39-38W, altitude: 3 m

Observation

Le bulletin a été fait il y a 25 minutes, à 19:58 UTC
Vent 8 kt de sud
Température 29°C
Humidité 74%
Pression 1016 hPa
Visibilité: 16.1 km
Quelques nuages à une hauteur de 2000 ft
Nuages épars à une hauteur de 6000 ft
Nuages fragmentés à une hauteur de 7000 ft

METAR: KMRH 121958Z AUTO 18008KT 10SM FEW020 SCT060 BKN070 29/24 A3000 RMK AO2 SLP160 T02890244

Heure: 16:23 (20:23 UTC)


TAF: absent

Observations et prévisions météorologiques de plus de 4000 aéroports (messages METAR et TAF).

Les stations disponibles sont représentées par des disques jaunes et rouges sur la carte.

Passer la souris dessus pour voir le nom de la station.

Cliquer dessus pour voir les observations et prévisions météorologiques.

Pour changer de carte: cliquez sur les boutons verts avec une croix noire pour zoomer, sur le bouton vert avec un tiret pour effectuer un zoom arrière, ou sur les flèches vertes pour les cartes adjacentes.


METAR-TAF: